createdAt,value
2022-12-13T09:56:10.435Z,14.68
2022-12-13T09:58:56.336Z,14.18
2022-12-13T10:01:41.559Z,14.56
2022-12-13T10:04:26.822Z,17.26
2022-12-13T10:07:11.602Z,16.41
2022-12-13T10:09:56.394Z,16.52
2022-12-13T10:12:41.369Z,12.73
2022-12-13T10:15:26.365Z,11.10
2022-12-13T10:18:11.232Z,9.98
2022-12-13T10:20:56.123Z,9.03
2022-12-13T10:24:15.326Z,8.10
2022-12-13T10:26:46.028Z,7.14
2022-12-13T10:29:30.936Z,6.76
2022-12-13T10:32:15.750Z,6.72
2022-12-13T10:35:00.860Z,6.15
2022-12-13T10:37:45.804Z,5.57
2022-12-13T10:40:32.178Z,6.40
2022-12-13T10:43:18.493Z,5.38
2022-12-13T10:46:04.665Z,6.04
2022-12-13T10:48:50.129Z,6.17
2022-12-13T10:51:35.013Z,6.28
2022-12-13T10:54:19.798Z,6.60
2022-12-13T10:57:04.650Z,7.11
2022-12-13T10:59:49.560Z,8.19
2022-12-13T11:02:34.566Z,8.14
2022-12-13T11:05:23.294Z,8.30
2022-12-13T11:08:10.367Z,8.24
2022-12-13T11:10:55.778Z,7.76
2022-12-13T11:13:41.120Z,7.51
2022-12-13T11:16:26.511Z,8.00
2022-12-13T11:19:11.353Z,7.35
2022-12-13T11:21:56.272Z,7.66
2022-12-13T11:24:41.288Z,7.27
2022-12-13T11:27:26.107Z,7.91
2022-12-13T11:30:11.152Z,7.36
2022-12-13T11:32:59.292Z,7.39
2022-12-13T11:35:44.364Z,7.42
2022-12-13T11:38:29.264Z,7.21
2022-12-13T11:41:14.286Z,7.12
2022-12-13T11:44:17.936Z,7.13
2022-12-13T11:47:03.004Z,7.10
2022-12-13T11:49:48.418Z,6.93
2022-12-13T11:52:33.414Z,7.11
2022-12-13T11:55:18.177Z,6.87
2022-12-13T11:58:03.268Z,6.45
2022-12-13T12:00:48.193Z,6.69
2022-12-13T12:03:33.163Z,6.44
2022-12-13T12:06:17.869Z,6.18
2022-12-13T12:09:02.679Z,6.45
2022-12-13T12:11:47.504Z,6.16
2022-12-13T12:14:32.498Z,6.20
2022-12-13T12:17:17.419Z,5.90
2022-12-13T12:20:04.377Z,5.54
2022-12-13T12:22:49.472Z,5.75
2022-12-13T12:25:35.233Z,6.10
2022-12-13T12:28:20.047Z,5.92
2022-12-13T12:31:05.204Z,5.58
2022-12-13T12:33:54.753Z,5.75
2022-12-13T12:36:40.213Z,5.71
2022-12-13T12:39:26.572Z,5.50
2022-12-13T12:42:11.826Z,5.73
2022-12-13T12:44:59.391Z,5.57
